sensor_id;sensor_type;location;lat;lon;timestamp;pressure;altitude;pressure_sealevel;temperature;humidity
53011;BME280;42803;55.762;38.084;2022-12-29T00:01:52;99281.72;;;-2.00;100.00
53011;BME280;42803;55.762;38.084;2022-12-29T00:04:22;99284.50;;;-1.98;100.00
53011;BME280;42803;55.762;38.084;2022-12-29T00:06:52;99281.56;;;-1.94;100.00
53011;BME280;42803;55.762;38.084;2022-12-29T00:09:23;99281.91;;;-1.91;100.00
53011;BME280;42803;55.762;38.084;2022-12-29T00:11:52;99285.75;;;-1.87;100.00
53011;BME280;42803;55.762;38.084;2022-12-29T00:14:21;99279.22;;;-1.85;100.00
53011;BME280;42803;55.762;38.084;2022-12-29T00:17:07;99288.16;;;-1.82;100.00
53011;BME280;42803;55.762;38.084;2022-12-29T00:19:36;99286.31;;;-1.76;100.00
53011;BME280;42803;55.762;38.084;2022-12-29T00:22:23;99283.06;;;-1.75;100.00
53011;BME280;42803;55.762;38.084;2022-12-29T00:25:12;99284.50;;;-1.77;100.00
53011;BME280;42803;55.762;38.084;2022-12-29T00:27:59;99285.63;;;-1.75;100.00
53011;BME280;42803;55.762;38.084;2022-12-29T00:30:45;99288.34;;;-1.80;100.00
53011;BME280;42803;55.762;38.084;2022-12-29T00:33:34;99291.81;;;-1.87;100.00
53011;BME280;42803;55.762;38.084;2022-12-29T00:36:23;99283.06;;;-1.82;100.00
53011;BME280;42803;55.762;38.084;2022-12-29T00:38:57;99294.94;;;-1.75;100.00
53011;BME280;42803;55.762;38.084;2022-12-29T00:41:47;99290.00;;;-1.74;100.00
53011;BME280;42803;55.762;38.084;2022-12-29T00:44:33;99293.31;;;-1.67;100.00
53011;BME280;42803;55.762;38.084;2022-12-29T00:47:02;99292.75;;;-1.65;100.00
53011;BME280;42803;55.762;38.084;2022-12-29T00:49:32;99296.22;;;-1.64;100.00
53011;BME280;42803;55.762;38.084;2022-12-29T00:52:03;99295.88;;;-1.67;100.00
53011;BME280;42803;55.762;38.084;2022-12-29T00:54:35;99302.44;;;-1.69;100.00
53011;BME280;42803;55.762;38.084;2022-12-29T00:57:08;99295.63;;;-1.83;100.00
53011;BME280;42803;55.762;38.084;2022-12-29T00:59:38;99302.78;;;-1.81;100.00
53011;BME280;42803;55.762;38.084;2022-12-29T01:02:08;99304.59;;;-1.94;100.00
53011;BME280;42803;55.762;38.084;2022-12-29T01:04:38;99301.84;;;-1.96;100.00
53011;BME280;42803;55.762;38.084;2022-12-29T01:07:07;99300.34;;;-2.08;100.00
53011;BME280;42803;55.762;38.084;2022-12-29T01:09:37;99299.78;;;-2.19;100.00
53011;BME280;42803;55.762;38.084;2022-12-29T01:12:24;99300.16;;;-2.16;100.00
53011;BME280;42803;55.762;38.084;2022-12-29T01:15:20;99296.91;;;-2.01;100.00
53011;BME280;42803;55.762;38.084;2022-12-29T01:17:50;99294.69;;;-2.05;100.00
53011;BME280;42803;55.762;38.084;2022-12-29T01:20:19;99297.75;;;-2.15;100.00
53011;BME280;42803;55.762;38.084;2022-12-29T01:22:48;99306.69;;;-2.18;100.00
53011;BME280;42803;55.762;38.084;2022-12-29T01:25:19;99304.13;;;-2.26;100.00
53011;BME280;42803;55.762;38.084;2022-12-29T01:27:49;99314.72;;;-2.23;100.00
53011;BME280;42803;55.762;38.084;2022-12-29T01:30:19;99311.81;;;-2.18;100.00
53011;BME280;42803;55.762;38.084;2022-12-29T01:32:48;99315.13;;;-2.12;100.00
53011;BME280;42803;55.762;38.084;2022-12-29T01:35:18;99319.50;;;-2.11;100.00
53011;BME280;42803;55.762;38.084;2022-12-29T01:37:48;99316.41;;;-2.16;100.00
53011;BME280;42803;55.762;38.084;2022-12-29T01:40:17;99317.66;;;-2.19;100.00
53011;BME280;42803;55.762;38.084;2022-12-29T01:42:46;99324.44;;;-2.13;100.00
53011;BME280;42803;55.762;38.084;2022-12-29T01:45:16;99323.38;;;-2.08;100.00
53011;BME280;42803;55.762;38.084;2022-12-29T01:47:48;99318.97;;;-2.09;100.00
53011;BME280;42803;55.762;38.084;2022-12-29T01:50:24;99324.59;;;-2.18;100.00
53011;BME280;42803;55.762;38.084;2022-12-29T01:52:57;99332.66;;;-2.15;100.00
53011;BME280;42803;55.762;38.084;2022-12-29T01:55:30;99321.16;;;-2.12;100.00
53011;BME280;42803;55.762;38.084;2022-12-29T01:58:05;99323.53;;;-2.06;100.00
53011;BME280;42803;55.762;38.084;2022-12-29T02:00:36;99325.78;;;-2.02;100.00
53011;BME280;42803;55.762;38.084;2022-12-29T02:03:08;99324.28;;;-2.07;100.00
53011;BME280;42803;55.762;38.084;2022-12-29T02:05:44;99323.53;;;-2.13;100.00
53011;BME280;42803;55.762;38.084;2022-12-29T02:08:16;99328.31;;;-2.09;100.00
53011;BME280;42803;55.762;38.084;2022-12-29T02:10:46;99334.53;;;-2.00;100.00
53011;BME280;42803;55.762;38.084;2022-12-29T02:13:17;99325.91;;;-2.08;100.00
53011;BME280;42803;55.762;38.084;2022-12-29T02:16:18;99336.84;;;-2.16;100.00
53011;BME280;42803;55.762;38.084;2022-12-29T02:19:03;99334.13;;;-2.17;100.00
53011;BME280;42803;55.762;38.084;2022-12-29T02:21:53;99337.38;;;-2.18;100.00
53011;BME280;42803;55.762;38.084;2022-12-29T02:27:54;99341.44;;;-2.13;100.00
53011;BME280;42803;55.762;38.084;2022-12-29T02:30:46;99346.91;;;-2.17;100.00
53011;BME280;42803;55.762;38.084;2022-12-29T02:33:33;99349.22;;;-2.26;100.00
53011;BME280;42803;55.762;38.084;2022-12-29T02:36:10;99352.66;;;-2.33;100.00
53011;BME280;42803;55.762;38.084;2022-12-29T02:38:52;99347.28;;;-2.49;100.00
53011;BME280;42803;55.762;38.084;2022-12-29T02:41:31;99332.13;;;-2.54;100.00
53011;BME280;42803;55.762;38.084;2022-12-29T02:44:05;99344.59;;;-2.77;100.00
53011;BME280;42803;55.762;38.084;2022-12-29T02:46:45;99350.78;;;-3.02;100.00
53011;BME280;42803;55.762;38.084;2022-12-29T02:49:22;99346.50;;;-3.16;100.00
53011;BME280;42803;55.762;38.084;2022-12-29T02:51:58;99347.75;;;-3.20;100.00
53011;BME280;42803;55.762;38.084;2022-12-29T02:54:29;99354.22;;;-3.29;100.00
53011;BME280;42803;55.762;38.084;2022-12-29T02:57:27;99350.13;;;-3.41;100.00
53011;BME280;42803;55.762;38.084;2022-12-29T02:59:58;99346.53;;;-3.56;100.00
53011;BME280;42803;55.762;38.084;2022-12-29T03:02:44;99360.06;;;-3.70;100.00
53011;BME280;42803;55.762;38.084;2022-12-29T03:05:23;99353.84;;;-3.72;100.00
53011;BME280;42803;55.762;38.084;2022-12-29T03:08:03;99357.72;;;-3.68;100.00
53011;BME280;42803;55.762;38.084;2022-12-29T03:10:40;99364.94;;;-3.58;100.00
53011;BME280;42803;55.762;38.084;2022-12-29T03:13:19;99367.47;;;-3.38;100.00
53011;BME280;42803;55.762;38.084;2022-12-29T03:16:15;99379.75;;;-3.29;100.00
53011;BME280;42803;55.762;38.084;2022-12-29T03:18:56;99375.91;;;-3.12;100.00
53011;BME280;42803;55.762;38.084;2022-12-29T03:21:32;99386.13;;;-3.05;100.00
53011;BME280;42803;55.762;38.084;2022-12-29T03:24:28;99383.28;;;-3.01;100.00
53011;BME280;42803;55.762;38.084;2022-12-29T03:27:01;99391.31;;;-2.98;100.00
53011;BME280;42803;55.762;38.084;2022-12-29T03:29:40;99389.16;;;-2.95;100.00
53011;BME280;42803;55.762;38.084;2022-12-29T03:32:13;99390.06;;;-2.95;100.00
53011;BME280;42803;55.762;38.084;2022-12-29T03:34:47;99397.19;;;-2.92;100.00
53011;BME280;42803;55.762;38.084;2022-12-29T03:37:20;99396.88;;;-2.88;100.00
53011;BME280;42803;55.762;38.084;2022-12-29T03:39:50;99402.75;;;-2.82;100.00
53011;BME280;42803;55.762;38.084;2022-12-29T03:42:21;99406.56;;;-2.85;100.00
53011;BME280;42803;55.762;38.084;2022-12-29T03:44:54;99408.38;;;-2.84;100.00
53011;BME280;42803;55.762;38.084;2022-12-29T03:47:24;99411.66;;;-2.85;100.00
53011;BME280;42803;55.762;38.084;2022-12-29T03:49:55;99416.91;;;-2.91;100.00
53011;BME280;42803;55.762;38.084;2022-12-29T03:52:24;99409.25;;;-2.91;100.00
53011;BME280;42803;55.762;38.084;2022-12-29T03:54:54;99417.22;;;-2.95;100.00
53011;BME280;42803;55.762;38.084;2022-12-29T03:57:23;99413.59;;;-2.97;100.00
53011;BME280;42803;55.762;38.084;2022-12-29T04:00:08;99430.66;;;-3.03;100.00
53011;BME280;42803;55.762;38.084;2022-12-29T04:02:48;99425.56;;;-3.03;100.00
53011;BME280;42803;55.762;38.084;2022-12-29T04:05:24;99428.44;;;-3.07;100.00
53011;BME280;42803;55.762;38.084;2022-12-29T04:07:55;99426.63;;;-3.08;100.00
53011;BME280;42803;55.762;38.084;2022-12-29T04:10:24;99427.72;;;-3.06;100.00
53011;BME280;42803;55.762;38.084;2022-12-29T04:12:57;99422.81;;;-3.05;100.00
53011;BME280;42803;55.762;38.084;2022-12-29T04:15:26;99424.97;;;-3.08;100.00
53011;BME280;42803;55.762;38.084;2022-12-29T04:17:57;99425.31;;;-3.12;100.00
53011;BME280;42803;55.762;38.084;2022-12-29T04:20:29;99428.88;;;-3.17;100.00
53011;BME280;42803;55.762;38.084;2022-12-29T04:23:16;99432.75;;;-3.13;100.00
53011;BME280;42803;55.762;38.084;2022-12-29T04:25:46;99425.31;;;-3.12;100.00
53011;BME280;42803;55.762;38.084;2022-12-29T04:28:17;99429.63;;;-3.18;100.00
53011;BME280;42803;55.762;38.084;2022-12-29T04:31:12;99426.88;;;-3.20;100.00
53011;BME280;42803;55.762;38.084;2022-12-29T04:33:44;99429.44;;;-3.20;100.00
53011;BME280;42803;55.762;38.084;2022-12-29T04:36:14;99440.34;;;-3.21;100.00
53011;BME280;42803;55.762;38.084;2022-12-29T04:38:46;99439.66;;;-3.20;100.00
53011;BME280;42803;55.762;38.084;2022-12-29T04:41:15;99436.38;;;-3.19;100.00
53011;BME280;42803;55.762;38.084;2022-12-29T04:43:45;99430.94;;;-3.14;100.00
53011;BME280;42803;55.762;38.084;2022-12-29T04:46:30;99425.81;;;-3.14;100.00
53011;BME280;42803;55.762;38.084;2022-12-29T04:49:04;99431.84;;;-3.14;100.00
53011;BME280;42803;55.762;38.084;2022-12-29T04:51:55;99441.66;;;-3.17;100.00
53011;BME280;42803;55.762;38.084;2022-12-29T04:54:25;99449.53;;;-3.15;100.00
53011;BME280;42803;55.762;38.084;2022-12-29T04:57:03;99446.25;;;-3.14;100.00
53011;BME280;42803;55.762;38.084;2022-12-29T04:59:33;99453.19;;;-3.13;100.00
53011;BME280;42803;55.762;38.084;2022-12-29T05:02:03;99454.22;;;-3.19;100.00
53011;BME280;42803;55.762;38.084;2022-12-29T05:04:34;99453.31;;;-3.19;100.00
53011;BME280;42803;55.762;38.084;2022-12-29T05:07:05;99455.72;;;-3.13;100.00
53011;BME280;42803;55.762;38.084;2022-12-29T05:09:34;99457.19;;;-3.15;100.00
53011;BME280;42803;55.762;38.084;2022-12-29T05:12:03;99462.06;;;-3.17;100.00
53011;BME280;42803;55.762;38.084;2022-12-29T05:14:34;99464.03;;;-3.22;100.00
53011;BME280;42803;55.762;38.084;2022-12-29T05:17:04;99466.34;;;-3.30;100.00
53011;BME280;42803;55.762;38.084;2022-12-29T05:19:34;99466.16;;;-3.32;100.00
53011;BME280;42803;55.762;38.084;2022-12-29T05:22:04;99464.94;;;-3.41;100.00
53011;BME280;42803;55.762;38.084;2022-12-29T05:24:34;99456.28;;;-3.49;100.00
53011;BME280;42803;55.762;38.084;2022-12-29T05:27:03;99462.38;;;-3.61;100.00
53011;BME280;42803;55.762;38.084;2022-12-29T05:29:52;99468.28;;;-3.68;100.00
53011;BME280;42803;55.762;38.084;2022-12-29T05:32:22;99465.16;;;-3.72;100.00
53011;BME280;42803;55.762;38.084;2022-12-29T05:34:52;99467.28;;;-3.75;100.00
53011;BME280;42803;55.762;38.084;2022-12-29T05:37:25;99467.59;;;-3.79;100.00
53011;BME280;42803;55.762;38.084;2022-12-29T05:39:54;99468.13;;;-3.82;100.00
53011;BME280;42803;55.762;38.084;2022-12-29T05:42:23;99479.44;;;-3.80;100.00
53011;BME280;42803;55.762;38.084;2022-12-29T05:45:13;99484.03;;;-3.77;100.00
53011;BME280;42803;55.762;38.084;2022-12-29T05:48:17;99485.38;;;-3.74;100.00
53011;BME280;42803;55.762;38.084;2022-12-29T05:51:03;99483.19;;;-3.71;100.00
53011;BME280;42803;55.762;38.084;2022-12-29T05:53:42;99490.53;;;-3.67;100.00
53011;BME280;42803;55.762;38.084;2022-12-29T05:56:11;99490.25;;;-3.62;100.00
53011;BME280;42803;55.762;38.084;2022-12-29T05:58:45;99492.66;;;-3.57;100.00
53011;BME280;42803;55.762;38.084;2022-12-29T06:01:14;99483.69;;;-3.60;100.00
53011;BME280;42803;55.762;38.084;2022-12-29T06:03:44;99499.72;;;-3.61;100.00
53011;BME280;42803;55.762;38.084;2022-12-29T06:06:15;99501.72;;;-3.59;100.00
53011;BME280;42803;55.762;38.084;2022-12-29T06:08:46;99503.66;;;-3.51;100.00
53011;BME280;42803;55.762;38.084;2022-12-29T06:11:15;99503.34;;;-3.47;100.00
53011;BME280;42803;55.762;38.084;2022-12-29T06:13:50;99499.56;;;-3.43;100.00
53011;BME280;42803;55.762;38.084;2022-12-29T06:16:19;99505.38;;;-3.44;100.00
53011;BME280;42803;55.762;38.084;2022-12-29T06:18:51;99512.31;;;-3.43;100.00
53011;BME280;42803;55.762;38.084;2022-12-29T06:21:20;99510.47;;;-3.44;100.00
53011;BME280;42803;55.762;38.084;2022-12-29T06:23:51;99509.56;;;-3.45;100.00
53011;BME280;42803;55.762;38.084;2022-12-29T06:26:20;99513.25;;;-3.42;100.00
53011;BME280;42803;55.762;38.084;2022-12-29T06:28:49;99513.09;;;-3.37;100.00
53011;BME280;42803;55.762;38.084;2022-12-29T06:31:18;99508.41;;;-3.34;100.00
53011;BME280;42803;55.762;38.084;2022-12-29T06:33:48;99513.69;;;-3.32;100.00
53011;BME280;42803;55.762;38.084;2022-12-29T06:36:18;99506.97;;;-3.32;100.00
53011;BME280;42803;55.762;38.084;2022-12-29T06:38:47;99513.00;;;-3.31;100.00
53011;BME280;42803;55.762;38.084;2022-12-29T06:41:17;99510.94;;;-3.34;100.00
53011;BME280;42803;55.762;38.084;2022-12-29T06:44:05;99507.50;;;-3.34;100.00
53011;BME280;42803;55.762;38.084;2022-12-29T06:46:50;99512.78;;;-3.33;100.00
53011;BME280;42803;55.762;38.084;2022-12-29T06:49:19;99516.25;;;-3.32;100.00
53011;BME280;42803;55.762;38.084;2022-12-29T06:51:48;99514.31;;;-3.28;100.00
53011;BME280;42803;55.762;38.084;2022-12-29T06:54:17;99512.53;;;-3.22;100.00
53011;BME280;42803;55.762;38.084;2022-12-29T06:56:48;99506.41;;;-3.16;100.00
53011;BME280;42803;55.762;38.084;2022-12-29T06:59:17;99512.28;;;-3.10;100.00
53011;BME280;42803;55.762;38.084;2022-12-29T07:01:46;99512.88;;;-3.06;100.00
53011;BME280;42803;55.762;38.084;2022-12-29T07:04:15;99505.59;;;-2.90;100.00
53011;BME280;42803;55.762;38.084;2022-12-29T07:06:45;99512.38;;;-2.83;100.00
53011;BME280;42803;55.762;38.084;2022-12-29T07:09:14;99512.31;;;-2.71;100.00
53011;BME280;42803;55.762;38.084;2022-12-29T07:11:43;99507.47;;;-2.62;100.00
53011;BME280;42803;55.762;38.084;2022-12-29T07:14:14;99504.63;;;-2.51;100.00
53011;BME280;42803;55.762;38.084;2022-12-29T07:16:43;99506.13;;;-2.46;100.00
53011;BME280;42803;55.762;38.084;2022-12-29T07:19:12;99516.41;;;-2.38;100.00
53011;BME280;42803;55.762;38.084;2022-12-29T07:21:41;99514.03;;;-2.37;100.00
53011;BME280;42803;55.762;38.084;2022-12-29T07:24:13;99506.00;;;-2.33;100.00
53011;BME280;42803;55.762;38.084;2022-12-29T07:26:42;99508.50;;;-2.20;100.00
53011;BME280;42803;55.762;38.084;2022-12-29T07:29:11;99514.41;;;-2.34;100.00
53011;BME280;42803;55.762;38.084;2022-12-29T07:31:41;99508.91;;;-2.37;100.00
53011;BME280;42803;55.762;38.084;2022-12-29T07:34:11;99515.78;;;-2.23;100.00
53011;BME280;42803;55.762;38.084;2022-12-29T07:36:40;99515.25;;;-2.21;100.00
53011;BME280;42803;55.762;38.084;2022-12-29T07:39:09;99519.63;;;-2.19;100.00
53011;BME280;42803;55.762;38.084;2022-12-29T07:41:39;99525.81;;;-2.25;100.00
53011;BME280;42803;55.762;38.084;2022-12-29T07:44:11;99523.22;;;-2.32;100.00
53011;BME280;42803;55.762;38.084;2022-12-29T07:47:20;99525.72;;;-2.39;100.00
53011;BME280;42803;55.762;38.084;2022-12-29T07:49:50;99522.41;;;-2.38;100.00
53011;BME280;42803;55.762;38.084;2022-12-29T07:52:19;99522.03;;;-2.41;100.00
53011;BME280;42803;55.762;38.084;2022-12-29T07:54:49;99530.09;;;-2.38;100.00
53011;BME280;42803;55.762;38.084;2022-12-29T07:57:18;99533.44;;;-2.32;100.00
53011;BME280;42803;55.762;38.084;2022-12-29T07:59:54;99531.41;;;-2.34;100.00
53011;BME280;42803;55.762;38.084;2022-12-29T08:02:24;99531.50;;;-2.47;100.00
53011;BME280;42803;55.762;38.084;2022-12-29T08:04:55;99539.09;;;-2.54;100.00
53011;BME280;42803;55.762;38.084;2022-12-29T08:07:24;99540.16;;;-2.59;100.00
53011;BME280;42803;55.762;38.084;2022-12-29T08:09:53;99546.28;;;-2.64;100.00
53011;BME280;42803;55.762;38.084;2022-12-29T08:12:22;99549.69;;;-2.71;100.00
53011;BME280;42803;55.762;38.084;2022-12-29T08:14:51;99556.50;;;-2.64;100.00
53011;BME280;42803;55.762;38.084;2022-12-29T08:17:20;99551.81;;;-2.61;100.00
53011;BME280;42803;55.762;38.084;2022-12-29T08:19:50;99552.19;;;-2.58;100.00
53011;BME280;42803;55.762;38.084;2022-12-29T08:22:19;99550.47;;;-2.45;100.00
53011;BME280;42803;55.762;38.084;2022-12-29T08:24:48;99548.63;;;-2.26;100.00
53011;BME280;42803;55.762;38.084;2022-12-29T08:27:18;99546.63;;;-2.22;100.00
53011;BME280;42803;55.762;38.084;2022-12-29T08:29:48;99543.38;;;-2.21;100.00
53011;BME280;42803;55.762;38.084;2022-12-29T08:32:17;99546.63;;;-2.22;100.00
53011;BME280;42803;55.762;38.084;2022-12-29T08:34:46;99554.34;;;-2.14;100.00
53011;BME280;42803;55.762;38.084;2022-12-29T08:37:17;99549.97;;;-2.15;100.00
53011;BME280;42803;55.762;38.084;2022-12-29T08:39:46;99551.28;;;-2.12;100.00
53011;BME280;42803;55.762;38.084;2022-12-29T08:42:16;99551.47;;;-2.10;100.00
53011;BME280;42803;55.762;38.084;2022-12-29T08:44:45;99555.16;;;-2.08;100.00
53011;BME280;42803;55.762;38.084;2022-12-29T08:47:14;99548.97;;;-2.03;100.00
53011;BME280;42803;55.762;38.084;2022-12-29T08:49:43;99547.53;;;-2.01;100.00
53011;BME280;42803;55.762;38.084;2022-12-29T08:52:12;99552.69;;;-1.94;100.00
53011;BME280;42803;55.762;38.084;2022-12-29T08:54:43;99543.78;;;-1.83;100.00
53011;BME280;42803;55.762;38.084;2022-12-29T08:57:12;99552.03;;;-1.79;100.00
53011;BME280;42803;55.762;38.084;2022-12-29T08:59:53;99542.84;;;-1.84;100.00
53011;BME280;42803;55.762;38.084;2022-12-29T09:02:23;99551.34;;;-1.70;100.00
53011;BME280;42803;55.762;38.084;2022-12-29T09:04:53;99557.00;;;-1.73;100.00
53011;BME280;42803;55.762;38.084;2022-12-29T09:07:22;99551.00;;;-1.66;100.00
53011;BME280;42803;55.762;38.084;2022-12-29T09:10:02;99549.09;;;-1.82;100.00
53011;BME280;42803;55.762;38.084;2022-12-29T09:12:56;99556.22;;;-1.86;100.00
53011;BME280;42803;55.762;38.084;2022-12-29T09:15:25;99563.72;;;-1.81;100.00
53011;BME280;42803;55.762;38.084;2022-12-29T09:17:54;99559.81;;;-1.91;100.00
53011;BME280;42803;55.762;38.084;2022-12-29T09:20:23;99551.97;;;-1.93;100.00
53011;BME280;42803;55.762;38.084;2022-12-29T09:22:53;99562.28;;;-1.79;100.00
53011;BME280;42803;55.762;38.084;2022-12-29T09:25:23;99558.25;;;-1.77;100.00
53011;BME280;42803;55.762;38.084;2022-12-29T09:27:52;99559.78;;;-1.72;100.00
53011;BME280;42803;55.762;38.084;2022-12-29T09:30:22;99550.19;;;-1.80;100.00
53011;BME280;42803;55.762;38.084;2022-12-29T09:32:52;99549.28;;;-1.80;100.00
53011;BME280;42803;55.762;38.084;2022-12-29T09:35:22;99547.50;;;-1.74;100.00
53011;BME280;42803;55.762;38.084;2022-12-29T09:37:51;99542.97;;;-1.62;100.00
53011;BME280;42803;55.762;38.084;2022-12-29T09:40:26;99553.25;;;-1.89;100.00
53011;BME280;42803;55.762;38.084;2022-12-29T09:43:28;99550.88;;;-2.15;100.00
53011;BME280;42803;55.762;38.084;2022-12-29T09:46:11;99549.47;;;-2.33;100.00
53011;BME280;42803;55.762;38.084;2022-12-29T09:48:47;99542.94;;;-2.31;100.00
53011;BME280;42803;55.762;38.084;2022-12-29T09:51:22;99540.88;;;-2.33;100.00
53011;BME280;42803;55.762;38.084;2022-12-29T09:53:56;99544.13;;;-2.14;100.00
53011;BME280;42803;55.762;38.084;2022-12-29T09:56:28;99550.56;;;-2.11;100.00
53011;BME280;42803;55.762;38.084;2022-12-29T09:59:00;99545.03;;;-2.14;100.00
53011;BME280;42803;55.762;38.084;2022-12-29T10:01:36;99537.19;;;-2.15;100.00
53011;BME280;42803;55.762;38.084;2022-12-29T10:04:06;99557.88;;;-2.34;100.00
53011;BME280;42803;55.762;38.084;2022-12-29T10:06:42;99551.03;;;-2.48;100.00
53011;BME280;42803;55.762;38.084;2022-12-29T10:09:39;99556.22;;;-2.33;100.00
53011;BME280;42803;55.762;38.084;2022-12-29T10:12:24;99554.34;;;-2.14;100.00
53011;BME280;42803;55.762;38.084;2022-12-29T10:15:03;99557.25;;;-2.18;100.00
53011;BME280;42803;55.762;38.084;2022-12-29T10:17:39;99551.47;;;-2.10;100.00
53011;BME280;42803;55.762;38.084;2022-12-29T10:20:19;99556.59;;;-1.76;100.00
53011;BME280;42803;55.762;38.084;2022-12-29T10:23:10;99554.00;;;-1.49;100.00
53011;BME280;42803;55.762;38.084;2022-12-29T10:25:45;99552.03;;;-1.44;100.00
53011;BME280;42803;55.762;38.084;2022-12-29T10:28:20;99555.16;;;-1.40;100.00
53011;BME280;42803;55.762;38.084;2022-12-29T10:30:51;99562.00;;;-1.60;100.00
53011;BME280;42803;55.762;38.084;2022-12-29T10:33:33;99566.63;;;-1.85;100.00
53011;BME280;42803;55.762;38.084;2022-12-29T10:36:12;99559.13;;;-2.10;100.00
53011;BME280;42803;55.762;38.084;2022-12-29T10:38:48;99561.88;;;-2.36;100.00
53011;BME280;42803;55.762;38.084;2022-12-29T10:41:23;99563.59;;;-2.69;100.00
53011;BME280;42803;55.762;38.084;2022-12-29T10:43:57;99566.06;;;-2.96;100.00
53011;BME280;42803;55.762;38.084;2022-12-29T10:46:29;99574.78;;;-3.14;100.00
53011;BME280;42803;55.762;38.084;2022-12-29T10:48:59;99574.53;;;-3.23;100.00
53011;BME280;42803;55.762;38.084;2022-12-29T10:51:32;99575.66;;;-3.33;100.00
53011;BME280;42803;55.762;38.084;2022-12-29T10:54:06;99575.38;;;-3.42;100.00
53011;BME280;42803;55.762;38.084;2022-12-29T10:56:42;99576.63;;;-3.46;100.00
53011;BME280;42803;55.762;38.084;2022-12-29T10:59:16;99583.03;;;-3.42;100.00
53011;BME280;42803;55.762;38.084;2022-12-29T11:01:56;99576.50;;;-3.40;100.00
53011;BME280;42803;55.762;38.084;2022-12-29T11:04:42;99580.91;;;-3.39;100.00
53011;BME280;42803;55.762;38.084;2022-12-29T11:07:15;99573.84;;;-3.34;100.00
53011;BME280;42803;55.762;38.084;2022-12-29T11:09:53;99571.88;;;-3.30;100.00
53011;BME280;42803;55.762;38.084;2022-12-29T11:12:24;99573.63;;;-3.36;100.00
53011;BME280;42803;55.762;38.084;2022-12-29T11:15:14;99567.91;;;-3.40;100.00
53011;BME280;42803;55.762;38.084;2022-12-29T11:17:45;99561.19;;;-3.40;100.00
53011;BME280;42803;55.762;38.084;2022-12-29T11:20:32;99563.41;;;-3.36;100.00
53011;BME280;42803;55.762;38.084;2022-12-29T11:23:03;99567.41;;;-3.38;100.00
53011;BME280;42803;55.762;38.084;2022-12-29T11:25:33;99569.69;;;-3.47;100.00
53011;BME280;42803;55.762;38.084;2022-12-29T11:28:04;99574.78;;;-3.59;100.00
53011;BME280;42803;55.762;38.084;2022-12-29T11:30:43;99577.34;;;-3.72;100.00
53011;BME280;42803;55.762;38.084;2022-12-29T11:33:12;99576.75;;;-3.77;100.00
53011;BME280;42803;55.762;38.084;2022-12-29T11:35:43;99573.38;;;-3.83;100.00
53011;BME280;42803;55.762;38.084;2022-12-29T11:38:19;99571.13;;;-3.87;100.00
53011;BME280;42803;55.762;38.084;2022-12-29T11:40:49;99573.50;;;-3.88;100.00
53011;BME280;42803;55.762;38.084;2022-12-29T11:43:23;99565.84;;;-3.88;100.00
53011;BME280;42803;55.762;38.084;2022-12-29T11:45:57;99566.03;;;-3.87;100.00
53011;BME280;42803;55.762;38.084;2022-12-29T11:48:29;99571.56;;;-3.84;100.00
53011;BME280;42803;55.762;38.084;2022-12-29T11:51:00;99571.56;;;-3.84;100.00
53011;BME280;42803;55.762;38.084;2022-12-29T11:53:37;99576.44;;;-3.85;100.00
53011;BME280;42803;55.762;38.084;2022-12-29T11:56:10;99585.03;;;-3.85;100.00
53011;BME280;42803;55.762;38.084;2022-12-29T11:58:41;99591.94;;;-3.84;100.00
53011;BME280;42803;55.762;38.084;2022-12-29T12:01:16;99583.88;;;-3.87;100.00
53011;BME280;42803;55.762;38.084;2022-12-29T12:03:50;99587.88;;;-3.89;100.00
53011;BME280;42803;55.762;38.084;2022-12-29T12:06:27;99592.56;;;-3.92;100.00
53011;BME280;42803;55.762;38.084;2022-12-29T12:09:02;99592.34;;;-3.94;100.00
53011;BME280;42803;55.762;38.084;2022-12-29T12:11:36;99603.19;;;-3.89;100.00
53011;BME280;42803;55.762;38.084;2022-12-29T12:14:11;99605.44;;;-3.85;100.00
53011;BME280;42803;55.762;38.084;2022-12-29T12:17:15;99598.38;;;-3.80;100.00
53011;BME280;42803;55.762;38.084;2022-12-29T12:19:49;99602.94;;;-3.78;100.00
53011;BME280;42803;55.762;38.084;2022-12-29T12:22:21;99602.94;;;-3.78;100.00
53011;BME280;42803;55.762;38.084;2022-12-29T12:24:58;99608.03;;;-3.78;100.00
53011;BME280;42803;55.762;38.084;2022-12-29T12:27:33;99606.63;;;-3.76;100.00
53011;BME280;42803;55.762;38.084;2022-12-29T12:30:13;99609.59;;;-3.73;100.00
53011;BME280;42803;55.762;38.084;2022-12-29T12:32:58;99616.34;;;-3.73;100.00
53011;BME280;42803;55.762;38.084;2022-12-29T12:35:36;99605.00;;;-3.75;100.00
53011;BME280;42803;55.762;38.084;2022-12-29T12:38:26;99602.94;;;-3.78;100.00
53011;BME280;42803;55.762;38.084;2022-12-29T12:41:07;99609.50;;;-3.80;100.00
53011;BME280;42803;55.762;38.084;2022-12-29T12:43:46;99606.22;;;-3.79;100.00
53011;BME280;42803;55.762;38.084;2022-12-29T12:46:41;99600.22;;;-3.79;100.00
53011;BME280;42803;55.762;38.084;2022-12-29T12:49:48;99603.38;;;-3.87;100.00
53011;BME280;42803;55.762;38.084;2022-12-29T12:52:29;99605.31;;;-3.92;100.00
53011;BME280;42803;55.762;38.084;2022-12-29T12:55:25;99603.25;;;-3.95;100.00
53011;BME280;42803;55.762;38.084;2022-12-29T12:57:59;99606.72;;;-3.94;100.00
53011;BME280;42803;55.762;38.084;2022-12-29T13:00:38;99597.97;;;-3.96;100.00
53011;BME280;42803;55.762;38.084;2022-12-29T13:03:13;99591.31;;;-4.01;100.00
53011;BME280;42803;55.762;38.084;2022-12-29T13:06:07;99601.13;;;-4.04;100.00
53011;BME280;42803;55.762;38.084;2022-12-29T13:08:49;99610.59;;;-4.03;100.00
53011;BME280;42803;55.762;38.084;2022-12-29T13:11:30;99612.44;;;-4.02;100.00
53011;BME280;42803;55.762;38.084;2022-12-29T13:14:16;99613.16;;;-4.03;100.00
53011;BME280;42803;55.762;38.084;2022-12-29T13:16:55;99620.56;;;-4.05;100.00
53011;BME280;42803;55.762;38.084;2022-12-29T13:19:36;99617.84;;;-4.06;100.00
53011;BME280;42803;55.762;38.084;2022-12-29T13:22:14;99615.28;;;-4.06;100.00
53011;BME280;42803;55.762;38.084;2022-12-29T13:24:55;99615.09;;;-4.08;100.00